sensor_id;sensor_type;location;lat;lon;timestamp;temperature;humidity
53114;DHT22;39009;53.166;6.232;2022-10-16T00:01:29;11.30;99.90
53114;DHT22;39009;53.166;6.232;2022-10-16T00:03:56;11.30;99.90
53114;DHT22;39009;53.166;6.232;2022-10-16T00:06:22;11.30;99.90
53114;DHT22;39009;53.166;6.232;2022-10-16T00:08:47;11.30;99.90
53114;DHT22;39009;53.166;6.232;2022-10-16T00:11:15;11.20;99.90
53114;DHT22;39009;53.166;6.232;2022-10-16T00:13:41;11.30;99.90
53114;DHT22;39009;53.166;6.232;2022-10-16T00:16:08;11.20;99.90
53114;DHT22;39009;53.166;6.232;2022-10-16T00:18:34;11.20;99.90
53114;DHT22;39009;53.166;6.232;2022-10-16T00:21:01;11.20;99.90
53114;DHT22;39009;53.166;6.232;2022-10-16T00:23:27;11.20;99.90
53114;DHT22;39009;53.166;6.232;2022-10-16T00:25:55;11.20;99.90
53114;DHT22;39009;53.166;6.232;2022-10-16T00:28:21;11.20;99.90
53114;DHT22;39009;53.166;6.232;2022-10-16T00:30:46;11.30;99.90
53114;DHT22;39009;53.166;6.232;2022-10-16T00:33:12;11.30;99.90
53114;DHT22;39009;53.166;6.232;2022-10-16T00:35:37;11.20;99.90
53114;DHT22;39009;53.166;6.232;2022-10-16T00:38:03;11.30;99.90
53114;DHT22;39009;53.166;6.232;2022-10-16T00:40:28;11.30;99.90
53114;DHT22;39009;53.166;6.232;2022-10-16T00:42:54;11.30;99.90
53114;DHT22;39009;53.166;6.232;2022-10-16T00:45:20;11.30;99.90
53114;DHT22;39009;53.166;6.232;2022-10-16T00:47:45;11.30;99.90
53114;DHT22;39009;53.166;6.232;2022-10-16T00:50:22;11.30;99.90
53114;DHT22;39009;53.166;6.232;2022-10-16T00:52:49;11.30;99.90
53114;DHT22;39009;53.166;6.232;2022-10-16T00:55:15;11.40;99.90
53114;DHT22;39009;53.166;6.232;2022-10-16T00:57:41;11.40;99.90
53114;DHT22;39009;53.166;6.232;2022-10-16T01:00:08;11.40;99.90
53114;DHT22;39009;53.166;6.232;2022-10-16T01:02:34;11.40;99.90
53114;DHT22;39009;53.166;6.232;2022-10-16T01:05:00;11.50;99.90
53114;DHT22;39009;53.166;6.232;2022-10-16T01:10:03;11.50;99.90
53114;DHT22;39009;53.166;6.232;2022-10-16T01:15:02;11.50;99.90
53114;DHT22;39009;53.166;6.232;2022-10-16T01:17:36;11.50;99.90
53114;DHT22;39009;53.166;6.232;2022-10-16T01:20:08;11.50;99.90
53114;DHT22;39009;53.166;6.232;2022-10-16T01:25:26;11.00;99.90
53114;DHT22;39009;53.166;6.232;2022-10-16T01:27:53;11.50;99.90
53114;DHT22;39009;53.166;6.232;2022-10-16T01:30:22;11.50;99.90
53114;DHT22;39009;53.166;6.232;2022-10-16T01:35:52;11.60;99.90
53114;DHT22;39009;53.166;6.232;2022-10-16T01:38:21;11.60;99.90
53114;DHT22;39009;53.166;6.232;2022-10-16T01:40:50;11.60;99.90
53114;DHT22;39009;53.166;6.232;2022-10-16T01:43:19;11.70;99.90
53114;DHT22;39009;53.166;6.232;2022-10-16T01:45:45;11.70;99.90
53114;DHT22;39009;53.166;6.232;2022-10-16T01:48:12;11.70;99.90
53114;DHT22;39009;53.166;6.232;2022-10-16T01:50:39;11.70;99.90
53114;DHT22;39009;53.166;6.232;2022-10-16T01:53:06;11.70;99.90
53114;DHT22;39009;53.166;6.232;2022-10-16T01:55:34;11.70;99.90
53114;DHT22;39009;53.166;6.232;2022-10-16T01:58:01;11.70;99.90
53114;DHT22;39009;53.166;6.232;2022-10-16T02:00:27;11.70;99.90
53114;DHT22;39009;53.166;6.232;2022-10-16T02:02:54;11.70;99.90
53114;DHT22;39009;53.166;6.232;2022-10-16T02:07:47;11.70;99.90
53114;DHT22;39009;53.166;6.232;2022-10-16T02:10:12;11.70;99.90
53114;DHT22;39009;53.166;6.232;2022-10-16T02:12:38;11.80;99.90
53114;DHT22;39009;53.166;6.232;2022-10-16T02:15:05;11.80;99.90
53114;DHT22;39009;53.166;6.232;2022-10-16T02:17:31;11.80;99.90
53114;DHT22;39009;53.166;6.232;2022-10-16T02:19:57;11.80;99.90
53114;DHT22;39009;53.166;6.232;2022-10-16T02:22:27;11.80;99.90
53114;DHT22;39009;53.166;6.232;2022-10-16T02:24:56;11.80;99.90
53114;DHT22;39009;53.166;6.232;2022-10-16T02:29:49;11.80;99.90
53114;DHT22;39009;53.166;6.232;2022-10-16T02:32:19;11.80;99.90
53114;DHT22;39009;53.166;6.232;2022-10-16T02:34:47;11.80;99.90
53114;DHT22;39009;53.166;6.232;2022-10-16T02:37:13;11.80;99.90
53114;DHT22;39009;53.166;6.232;2022-10-16T02:39:39;11.80;99.90
53114;DHT22;39009;53.166;6.232;2022-10-16T02:42:09;11.80;99.90
53114;DHT22;39009;53.166;6.232;2022-10-16T02:44:35;11.80;99.90
53114;DHT22;39009;53.166;6.232;2022-10-16T02:47:00;11.80;99.90
53114;DHT22;39009;53.166;6.232;2022-10-16T02:49:26;11.70;99.90
53114;DHT22;39009;53.166;6.232;2022-10-16T02:51:51;11.70;99.90
53114;DHT22;39009;53.166;6.232;2022-10-16T02:54:17;11.70;99.90
53114;DHT22;39009;53.166;6.232;2022-10-16T02:56:42;11.60;99.90
53114;DHT22;39009;53.166;6.232;2022-10-16T02:59:08;11.60;99.90
53114;DHT22;39009;53.166;6.232;2022-10-16T03:01:33;11.50;99.90
53114;DHT22;39009;53.166;6.232;2022-10-16T03:03:59;11.50;99.90
53114;DHT22;39009;53.166;6.232;2022-10-16T03:06:25;11.40;99.90
53114;DHT22;39009;53.166;6.232;2022-10-16T03:08:50;11.40;99.90
53114;DHT22;39009;53.166;6.232;2022-10-16T03:11:16;11.40;99.90
53114;DHT22;39009;53.166;6.232;2022-10-16T03:13:41;11.40;99.90
53114;DHT22;39009;53.166;6.232;2022-10-16T03:16:07;11.30;99.90
53114;DHT22;39009;53.166;6.232;2022-10-16T03:18:32;11.30;99.90
53114;DHT22;39009;53.166;6.232;2022-10-16T03:20:58;11.30;99.90
53114;DHT22;39009;53.166;6.232;2022-10-16T03:23:23;11.30;99.90
53114;DHT22;39009;53.166;6.232;2022-10-16T03:25:49;11.20;99.90
53114;DHT22;39009;53.166;6.232;2022-10-16T03:28:14;11.20;99.90
53114;DHT22;39009;53.166;6.232;2022-10-16T03:30:40;11.20;99.90
53114;DHT22;39009;53.166;6.232;2022-10-16T03:33:06;11.20;99.90
53114;DHT22;39009;53.166;6.232;2022-10-16T03:35:31;11.20;99.90
53114;DHT22;39009;53.166;6.232;2022-10-16T03:37:58;11.20;99.90
53114;DHT22;39009;53.166;6.232;2022-10-16T03:40:24;11.20;99.90
53114;DHT22;39009;53.166;6.232;2022-10-16T03:42:50;11.20;99.90
53114;DHT22;39009;53.166;6.232;2022-10-16T03:45:15;11.30;99.90
53114;DHT22;39009;53.166;6.232;2022-10-16T03:47:41;11.20;99.90
53114;DHT22;39009;53.166;6.232;2022-10-16T03:50:07;11.20;99.90
53114;DHT22;39009;53.166;6.232;2022-10-16T03:52:32;11.20;99.90
53114;DHT22;39009;53.166;6.232;2022-10-16T03:54:58;11.20;99.90
53114;DHT22;39009;53.166;6.232;2022-10-16T03:57:24;11.20;99.90
53114;DHT22;39009;53.166;6.232;2022-10-16T03:59:49;11.10;99.90
53114;DHT22;39009;53.166;6.232;2022-10-16T04:02:16;11.10;99.90
53114;DHT22;39009;53.166;6.232;2022-10-16T04:04:41;11.10;99.90
53114;DHT22;39009;53.166;6.232;2022-10-16T04:07:07;11.10;99.90
53114;DHT22;39009;53.166;6.232;2022-10-16T04:09:32;11.00;99.90
53114;DHT22;39009;53.166;6.232;2022-10-16T04:11:58;11.10;99.90
53114;DHT22;39009;53.166;6.232;2022-10-16T04:14:24;11.00;99.90
53114;DHT22;39009;53.166;6.232;2022-10-16T04:16:50;11.10;99.90
53114;DHT22;39009;53.166;6.232;2022-10-16T04:19:15;11.10;99.90
53114;DHT22;39009;53.166;6.232;2022-10-16T04:21:41;11.10;99.90
53114;DHT22;39009;53.166;6.232;2022-10-16T04:24:07;11.10;99.90
53114;DHT22;39009;53.166;6.232;2022-10-16T04:26:32;11.10;99.90
53114;DHT22;39009;53.166;6.232;2022-10-16T04:28:58;11.10;99.90
53114;DHT22;39009;53.166;6.232;2022-10-16T04:31:23;11.20;99.90
53114;DHT22;39009;53.166;6.232;2022-10-16T04:33:49;11.20;99.90
53114;DHT22;39009;53.166;6.232;2022-10-16T04:36:14;11.30;99.90
53114;DHT22;39009;53.166;6.232;2022-10-16T04:38:40;11.40;99.90
53114;DHT22;39009;53.166;6.232;2022-10-16T04:41:06;11.40;99.90
53114;DHT22;39009;53.166;6.232;2022-10-16T04:43:32;11.50;99.90
53114;DHT22;39009;53.166;6.232;2022-10-16T04:45:57;11.50;99.90
53114;DHT22;39009;53.166;6.232;2022-10-16T04:48:23;11.50;99.90
53114;DHT22;39009;53.166;6.232;2022-10-16T04:50:48;11.60;99.90
53114;DHT22;39009;53.166;6.232;2022-10-16T04:53:14;11.60;99.90
53114;DHT22;39009;53.166;6.232;2022-10-16T04:55:40;11.60;99.90
53114;DHT22;39009;53.166;6.232;2022-10-16T04:58:06;11.60;99.90
53114;DHT22;39009;53.166;6.232;2022-10-16T05:00:32;11.70;99.90
53114;DHT22;39009;53.166;6.232;2022-10-16T05:02:58;11.70;99.90
53114;DHT22;39009;53.166;6.232;2022-10-16T05:05:25;11.70;99.90
53114;DHT22;39009;53.166;6.232;2022-10-16T05:07:50;11.70;99.90
53114;DHT22;39009;53.166;6.232;2022-10-16T05:10:16;11.70;99.90
53114;DHT22;39009;53.166;6.232;2022-10-16T05:12:41;11.70;99.90
53114;DHT22;39009;53.166;6.232;2022-10-16T05:15:07;11.70;99.90
53114;DHT22;39009;53.166;6.232;2022-10-16T05:17:33;11.70;99.90
53114;DHT22;39009;53.166;6.232;2022-10-16T05:19:58;11.70;99.90
53114;DHT22;39009;53.166;6.232;2022-10-16T05:22:24;11.70;99.90
53114;DHT22;39009;53.166;6.232;2022-10-16T05:24:49;11.70;99.90
53114;DHT22;39009;53.166;6.232;2022-10-16T05:27:15;11.80;99.90
53114;DHT22;39009;53.166;6.232;2022-10-16T05:29:45;11.70;99.90
53114;DHT22;39009;53.166;6.232;2022-10-16T05:32:12;11.70;99.90
53114;DHT22;39009;53.166;6.232;2022-10-16T05:34:38;11.80;99.90
53114;DHT22;39009;53.166;6.232;2022-10-16T05:37:03;11.70;99.90
53114;DHT22;39009;53.166;6.232;2022-10-16T05:39:29;11.70;99.90
53114;DHT22;39009;53.166;6.232;2022-10-16T05:41:54;11.70;99.90
53114;DHT22;39009;53.166;6.232;2022-10-16T05:44:20;11.70;99.90
53114;DHT22;39009;53.166;6.232;2022-10-16T05:46:46;11.70;99.90
53114;DHT22;39009;53.166;6.232;2022-10-16T05:49:11;11.60;99.90
53114;DHT22;39009;53.166;6.232;2022-10-16T05:51:37;11.70;99.90
53114;DHT22;39009;53.166;6.232;2022-10-16T05:54:03;11.60;99.90
53114;DHT22;39009;53.166;6.232;2022-10-16T05:56:28;11.70;99.90
53114;DHT22;39009;53.166;6.232;2022-10-16T05:58:54;11.60;99.90
53114;DHT22;39009;53.166;6.232;2022-10-16T06:01:20;11.60;99.90
53114;DHT22;39009;53.166;6.232;2022-10-16T06:03:50;11.60;99.90
53114;DHT22;39009;53.166;6.232;2022-10-16T06:06:17;11.60;99.90
53114;DHT22;39009;53.166;6.232;2022-10-16T06:08:43;11.60;99.90
53114;DHT22;39009;53.166;6.232;2022-10-16T06:11:11;11.60;99.90
53114;DHT22;39009;53.166;6.232;2022-10-16T06:13:38;11.60;99.90
53114;DHT22;39009;53.166;6.232;2022-10-16T06:16:04;11.60;99.90
53114;DHT22;39009;53.166;6.232;2022-10-16T06:18:30;11.70;99.90
53114;DHT22;39009;53.166;6.232;2022-10-16T06:20:55;11.70;99.90
53114;DHT22;39009;53.166;6.232;2022-10-16T06:23:21;11.70;99.90
53114;DHT22;39009;53.166;6.232;2022-10-16T06:25:47;11.70;99.90
53114;DHT22;39009;53.166;6.232;2022-10-16T06:28:14;11.80;99.90
53114;DHT22;39009;53.166;6.232;2022-10-16T06:30:40;11.80;99.90
53114;DHT22;39009;53.166;6.232;2022-10-16T06:33:05;11.80;99.90
53114;DHT22;39009;53.166;6.232;2022-10-16T06:35:31;11.80;99.90
53114;DHT22;39009;53.166;6.232;2022-10-16T06:37:57;11.90;99.90
53114;DHT22;39009;53.166;6.232;2022-10-16T06:40:23;11.90;99.90
53114;DHT22;39009;53.166;6.232;2022-10-16T06:42:48;11.90;99.90
53114;DHT22;39009;53.166;6.232;2022-10-16T06:45:14;12.00;99.90
53114;DHT22;39009;53.166;6.232;2022-10-16T06:47:39;11.90;99.90
53114;DHT22;39009;53.166;6.232;2022-10-16T06:50:05;12.00;99.90
53114;DHT22;39009;53.166;6.232;2022-10-16T06:52:33;12.00;99.90
53114;DHT22;39009;53.166;6.232;2022-10-16T06:54:59;12.00;99.90
53114;DHT22;39009;53.166;6.232;2022-10-16T06:57:25;12.10;99.90
53114;DHT22;39009;53.166;6.232;2022-10-16T06:59:50;12.10;99.90
53114;DHT22;39009;53.166;6.232;2022-10-16T07:02:16;12.10;99.90
53114;DHT22;39009;53.166;6.232;2022-10-16T07:04:41;12.10;99.90
53114;DHT22;39009;53.166;6.232;2022-10-16T07:07:07;12.10;99.90
53114;DHT22;39009;53.166;6.232;2022-10-16T07:09:32;12.10;99.90
53114;DHT22;39009;53.166;6.232;2022-10-16T07:11:58;12.20;99.90
53114;DHT22;39009;53.166;6.232;2022-10-16T07:14:23;12.20;99.90
53114;DHT22;39009;53.166;6.232;2022-10-16T07:16:49;12.20;99.90
53114;DHT22;39009;53.166;6.232;2022-10-16T07:19:15;12.20;99.90
53114;DHT22;39009;53.166;6.232;2022-10-16T07:21:43;12.20;99.90
53114;DHT22;39009;53.166;6.232;2022-10-16T07:24:13;12.20;99.90
53114;DHT22;39009;53.166;6.232;2022-10-16T07:26:39;12.30;99.90
53114;DHT22;39009;53.166;6.232;2022-10-16T07:29:13;12.30;99.90
53114;DHT22;39009;53.166;6.232;2022-10-16T07:31:38;12.30;99.90
53114;DHT22;39009;53.166;6.232;2022-10-16T07:34:05;12.30;99.90
53114;DHT22;39009;53.166;6.232;2022-10-16T07:36:30;12.30;99.90
53114;DHT22;39009;53.166;6.232;2022-10-16T07:38:56;12.30;99.90
53114;DHT22;39009;53.166;6.232;2022-10-16T07:41:22;12.30;99.90
53114;DHT22;39009;53.166;6.232;2022-10-16T07:43:48;12.30;99.90
53114;DHT22;39009;53.166;6.232;2022-10-16T07:46:14;12.20;99.90
53114;DHT22;39009;53.166;6.232;2022-10-16T07:48:40;12.20;99.90
53114;DHT22;39009;53.166;6.232;2022-10-16T07:51:06;12.20;99.90
53114;DHT22;39009;53.166;6.232;2022-10-16T07:53:32;12.30;99.90
53114;DHT22;39009;53.166;6.232;2022-10-16T07:55:58;12.40;99.90
53114;DHT22;39009;53.166;6.232;2022-10-16T07:58:25;12.50;99.90
53114;DHT22;39009;53.166;6.232;2022-10-16T08:00:50;12.70;99.90
53114;DHT22;39009;53.166;6.232;2022-10-16T08:03:16;13.20;99.90
53114;DHT22;39009;53.166;6.232;2022-10-16T08:05:41;13.80;99.90
53114;DHT22;39009;53.166;6.232;2022-10-16T08:08:11;14.20;99.90
53114;DHT22;39009;53.166;6.232;2022-10-16T08:10:36;14.30;99.90
53114;DHT22;39009;53.166;6.232;2022-10-16T08:13:02;14.40;99.90
53114;DHT22;39009;53.166;6.232;2022-10-16T08:15:28;14.50;99.90
53114;DHT22;39009;53.166;6.232;2022-10-16T08:17:54;14.60;99.90
53114;DHT22;39009;53.166;6.232;2022-10-16T08:20:19;14.70;99.90
53114;DHT22;39009;53.166;6.232;2022-10-16T08:22:45;14.70;99.90
53114;DHT22;39009;53.166;6.232;2022-10-16T08:25:10;14.60;99.90
53114;DHT22;39009;53.166;6.232;2022-10-16T08:27:36;14.60;99.90
53114;DHT22;39009;53.166;6.232;2022-10-16T08:30:02;14.60;99.90
53114;DHT22;39009;53.166;6.232;2022-10-16T08:32:27;14.60;99.90
53114;DHT22;39009;53.166;6.232;2022-10-16T08:34:53;14.60;99.90
53114;DHT22;39009;53.166;6.232;2022-10-16T08:37:18;14.60;99.90
53114;DHT22;39009;53.166;6.232;2022-10-16T08:39:44;14.60;99.90
53114;DHT22;39009;53.166;6.232;2022-10-16T08:42:13;14.60;99.90
53114;DHT22;39009;53.166;6.232;2022-10-16T08:44:47;14.50;99.90
53114;DHT22;39009;53.166;6.232;2022-10-16T08:47:19;14.40;99.90
53114;DHT22;39009;53.166;6.232;2022-10-16T08:49:53;14.40;99.90
53114;DHT22;39009;53.166;6.232;2022-10-16T08:52:20;14.40;99.90
53114;DHT22;39009;53.166;6.232;2022-10-16T08:54:46;14.40;99.90
53114;DHT22;39009;53.166;6.232;2022-10-16T08:57:14;14.50;99.90
53114;DHT22;39009;53.166;6.232;2022-10-16T08:59:42;14.60;99.90
53114;DHT22;39009;53.166;6.232;2022-10-16T09:02:16;14.70;99.90
53114;DHT22;39009;53.166;6.232;2022-10-16T09:09:46;15.10;99.90
53114;DHT22;39009;53.166;6.232;2022-10-16T09:12:18;15.20;99.90
53114;DHT22;39009;53.166;6.232;2022-10-16T09:22:39;15.50;99.90
53114;DHT22;39009;53.166;6.232;2022-10-16T09:25:13;15.60;99.90
53114;DHT22;39009;53.166;6.232;2022-10-16T09:27:39;15.70;99.90
53114;DHT22;39009;53.166;6.232;2022-10-16T09:30:11;16.30;99.90
53114;DHT22;39009;53.166;6.232;2022-10-16T09:32:37;16.90;99.90
53114;DHT22;39009;53.166;6.232;2022-10-16T09:35:03;17.20;99.90
53114;DHT22;39009;53.166;6.232;2022-10-16T09:37:29;17.10;99.90
53114;DHT22;39009;53.166;6.232;2022-10-16T09:39:56;16.80;99.90
53114;DHT22;39009;53.166;6.232;2022-10-16T09:42:27;16.50;99.90
53114;DHT22;39009;53.166;6.232;2022-10-16T09:44:53;16.30;99.90
53114;DHT22;39009;53.166;6.232;2022-10-16T09:47:20;16.20;99.90
53114;DHT22;39009;53.166;6.232;2022-10-16T09:49:51;16.00;99.90
53114;DHT22;39009;53.166;6.232;2022-10-16T09:52:18;15.90;99.90
53114;DHT22;39009;53.166;6.232;2022-10-16T09:54:49;15.80;99.90
53114;DHT22;39009;53.166;6.232;2022-10-16T09:57:15;15.70;99.90
53114;DHT22;39009;53.166;6.232;2022-10-16T09:59:48;15.60;99.90
53114;DHT22;39009;53.166;6.232;2022-10-16T10:02:14;15.60;99.90
53114;DHT22;39009;53.166;6.232;2022-10-16T10:04:41;15.60;99.90
53114;DHT22;39009;53.166;6.232;2022-10-16T10:07:07;15.50;99.90
53114;DHT22;39009;53.166;6.232;2022-10-16T10:09:42;15.60;99.90
53114;DHT22;39009;53.166;6.232;2022-10-16T10:12:25;15.60;99.90
53114;DHT22;39009;53.166;6.232;2022-10-16T10:14:52;15.60;99.90
53114;DHT22;39009;53.166;6.232;2022-10-16T10:17:23;15.60;99.90
53114;DHT22;39009;53.166;6.232;2022-10-16T10:22:17;15.60;99.90
53114;DHT22;39009;53.166;6.232;2022-10-16T10:24:44;15.70;99.90
53114;DHT22;39009;53.166;6.232;2022-10-16T10:27:13;15.70;99.90
53114;DHT22;39009;53.166;6.232;2022-10-16T10:29:47;15.70;99.90
53114;DHT22;39009;53.166;6.232;2022-10-16T10:32:19;15.80;99.90
53114;DHT22;39009;53.166;6.232;2022-10-16T10:34:51;15.80;99.90
53114;DHT22;39009;53.166;6.232;2022-10-16T10:37:24;15.90;99.90
53114;DHT22;39009;53.166;6.232;2022-10-16T10:39:58;16.00;99.90
53114;DHT22;39009;53.166;6.232;2022-10-16T10:42:31;16.00;99.90
53114;DHT22;39009;53.166;6.232;2022-10-16T10:45:26;16.10;99.90
53114;DHT22;39009;53.166;6.232;2022-10-16T10:48:01;16.20;99.90
53114;DHT22;39009;53.166;6.232;2022-10-16T10:53:05;16.40;99.90
53114;DHT22;39009;53.166;6.232;2022-10-16T10:55:41;16.50;99.90
53114;DHT22;39009;53.166;6.232;2022-10-16T11:03:26;17.30;99.90
53114;DHT22;39009;53.166;6.232;2022-10-16T11:05:55;17.40;99.90
53114;DHT22;39009;53.166;6.232;2022-10-16T11:10:50;17.40;99.90
53114;DHT22;39009;53.166;6.232;2022-10-16T11:13:19;17.40;99.90
53114;DHT22;39009;53.166;6.232;2022-10-16T11:15:47;17.60;99.90
53114;DHT22;39009;53.166;6.232;2022-10-16T11:18:21;18.30;99.90
53114;DHT22;39009;53.166;6.232;2022-10-16T11:20:50;19.10;99.90
53114;DHT22;39009;53.166;6.232;2022-10-16T11:23:18;20.00;99.90
53114;DHT22;39009;53.166;6.232;2022-10-16T11:25:46;20.50;99.90
53114;DHT22;39009;53.166;6.232;2022-10-16T11:28:14;19.90;99.90
53114;DHT22;39009;53.166;6.232;2022-10-16T11:30:43;19.20;99.90
53114;DHT22;39009;53.166;6.232;2022-10-16T11:35:50;18.10;99.90
53114;DHT22;39009;53.166;6.232;2022-10-16T11:38:23;18.70;99.90
53114;DHT22;39009;53.166;6.232;2022-10-16T11:40:52;19.00;99.90
53114;DHT22;39009;53.166;6.232;2022-10-16T11:43:24;19.60;99.90
53114;DHT22;39009;53.166;6.232;2022-10-16T11:45:52;20.30;99.90
53114;DHT22;39009;53.166;6.232;2022-10-16T11:53:32;20.20;99.90
53114;DHT22;39009;53.166;6.232;2022-10-16T11:56:00;20.10;99.90
53114;DHT22;39009;53.166;6.232;2022-10-16T12:03:29;21.10;99.90
53114;DHT22;39009;53.166;6.232;2022-10-16T12:06:10;21.80;99.90
53114;DHT22;39009;53.166;6.232;2022-10-16T12:08:39;22.50;99.90
53114;DHT22;39009;53.166;6.232;2022-10-16T12:11:06;23.10;99.90
53114;DHT22;39009;53.166;6.232;2022-10-16T12:13:34;23.70;99.90
53114;DHT22;39009;53.166;6.232;2022-10-16T12:16:07;24.10;99.90
53114;DHT22;39009;53.166;6.232;2022-10-16T12:18:33;24.40;99.90
53114;DHT22;39009;53.166;6.232;2022-10-16T12:20:59;24.40;99.90
53114;DHT22;39009;53.166;6.232;2022-10-16T12:23:30;24.20;98.90
53114;DHT22;39009;53.166;6.232;2022-10-16T12:25:57;23.80;99.40
53114;DHT22;39009;53.166;6.232;2022-10-16T12:28:27;23.00;98.50
53114;DHT22;39009;53.166;6.232;2022-10-16T12:30:55;21.90;99.90
53114;DHT22;39009;53.166;6.232;2022-10-16T12:33:22;20.90;99.90
53114;DHT22;39009;53.166;6.232;2022-10-16T12:35:49;20.10;99.90
53114;DHT22;39009;53.166;6.232;2022-10-16T12:38:16;19.40;99.90
53114;DHT22;39009;53.166;6.232;2022-10-16T12:40:43;18.80;99.90
53114;DHT22;39009;53.166;6.232;2022-10-16T12:43:12;18.30;99.90
53114;DHT22;39009;53.166;6.232;2022-10-16T12:45:37;18.00;99.90
53114;DHT22;39009;53.166;6.232;2022-10-16T12:48:17;17.70;99.90
53114;DHT22;39009;53.166;6.232;2022-10-16T12:50:43;17.50;99.90
53114;DHT22;39009;53.166;6.232;2022-10-16T12:53:22;17.30;99.90
53114;DHT22;39009;53.166;6.232;2022-10-16T12:58:43;17.00;99.90
53114;DHT22;39009;53.166;6.232;2022-10-16T13:03:43;16.80;99.90
53114;DHT22;39009;53.166;6.232;2022-10-16T13:08:47;16.70;99.90
53114;DHT22;39009;53.166;6.232;2022-10-16T13:11:20;16.70;99.90
53114;DHT22;39009;53.166;6.232;2022-10-16T13:13:58;16.70;99.90
53114;DHT22;39009;53.166;6.232;2022-10-16T13:16:32;16.80;99.90
53114;DHT22;39009;53.166;6.232;2022-10-16T13:21:31;16.80;99.90
53114;DHT22;39009;53.166;6.232;2022-10-16T13:26:46;16.70;99.90
53114;DHT22;39009;53.166;6.232;2022-10-16T13:29:15;16.60;99.90
53114;DHT22;39009;53.166;6.232;2022-10-16T13:31:40;16.60;99.90
53114;DHT22;39009;53.166;6.232;2022-10-16T13:34:11;16.50;99.90
53114;DHT22;39009;53.166;6.232;2022-10-16T13:36:45;16.40;99.90
53114;DHT22;39009;53.166;6.232;2022-10-16T13:39:12;16.30;99.90
53114;DHT22;39009;53.166;6.232;2022-10-16T13:41:38;16.30;99.90
53114;DHT22;39009;53.166;6.232;2022-10-16T13:44:04;16.30;99.90
53114;DHT22;39009;53.166;6.232;2022-10-16T13:46:30;16.30;99.90
53114;DHT22;39009;53.166;6.232;2022-10-16T13:49:00;16.30;99.90
53114;DHT22;39009;53.166;6.232;2022-10-16T13:51:26;16.20;99.90
53114;DHT22;39009;53.166;6.232;2022-10-16T13:53:52;16.20;99.90
53114;DHT22;39009;53.166;6.232;2022-10-16T13:56:20;16.20;99.90
53114;DHT22;39009;53.166;6.232;2022-10-16T13:58:57;16.30;99.90
53114;DHT22;39009;53.166;6.232;2022-10-16T14:01:24;16.20;99.90
53114;DHT22;39009;53.166;6.232;2022-10-16T14:03:50;16.20;99.90
53114;DHT22;39009;53.166;6.232;2022-10-16T14:06:17;16.20;99.90
53114;DHT22;39009;53.166;6.232;2022-10-16T14:08:44;16.10;99.90
53114;DHT22;39009;53.166;6.232;2022-10-16T14:11:11;16.10;99.90
53114;DHT22;39009;53.166;6.232;2022-10-16T14:13:38;16.10;99.90
53114;DHT22;39009;53.166;6.232;2022-10-16T14:16:06;16.00;99.90
53114;DHT22;39009;53.166;6.232;2022-10-16T14:18:32;16.00;99.90
53114;DHT22;39009;53.166;6.232;2022-10-16T14:21:03;15.90;99.90
53114;DHT22;39009;53.166;6.232;2022-10-16T14:23:30;15.80;99.90
53114;DHT22;39009;53.166;6.232;2022-10-16T14:26:17;15.80;99.90
53114;DHT22;39009;53.166;6.232;2022-10-16T14:28:42;15.70;99.90
53114;DHT22;39009;53.166;6.232;2022-10-16T14:33:52;15.50;99.90
53114;DHT22;39009;53.166;6.232;2022-10-16T14:36:18;15.50;99.90
53114;DHT22;39009;53.166;6.232;2022-10-16T14:38:51;15.40;99.90
53114;DHT22;39009;53.166;6.232;2022-10-16T14:41:20;15.40;99.90
53114;DHT22;39009;53.166;6.232;2022-10-16T14:43:49;15.30;99.90
53114;DHT22;39009;53.166;6.232;2022-10-16T14:46:16;15.30;99.90
53114;DHT22;39009;53.166;6.232;2022-10-16T14:48:43;15.20;99.90
53114;DHT22;39009;53.166;6.232;2022-10-16T14:51:17;15.20;99.90
53114;DHT22;39009;53.166;6.232;2022-10-16T14:53:43;15.10;99.90
53114;DHT22;39009;53.166;6.232;2022-10-16T14:56:19;15.10;99.90
53114;DHT22;39009;53.166;6.232;2022-10-16T14:58:45;15.00;99.90
53114;DHT22;39009;53.166;6.232;2022-10-16T15:01:11;15.00;99.90
53114;DHT22;39009;53.166;6.232;2022-10-16T15:03:37;15.00;99.90
53114;DHT22;39009;53.166;6.232;2022-10-16T15:06:03;15.00;99.90
53114;DHT22;39009;53.166;6.232;2022-10-16T15:08:28;15.00;99.90
53114;DHT22;39009;53.166;6.232;2022-10-16T15:10:54;15.00;99.90
53114;DHT22;39009;53.166;6.232;2022-10-16T15:13:19;15.00;99.90
53114;DHT22;39009;53.166;6.232;2022-10-16T15:15:45;14.90;99.90
53114;DHT22;39009;53.166;6.232;2022-10-16T15:18:11;14.90;99.90
53114;DHT22;39009;53.166;6.232;2022-10-16T15:20:38;14.90;99.90
53114;DHT22;39009;53.166;6.232;2022-10-16T15:23:05;14.90;99.90
53114;DHT22;39009;53.166;6.232;2022-10-16T15:25:34;14.90;99.90
53114;DHT22;39009;53.166;6.232;2022-10-16T15:28:01;14.90;99.90
53114;DHT22;39009;53.166;6.232;2022-10-16T15:30:27;14.80;99.90
53114;DHT22;39009;53.166;6.232;2022-10-16T15:32:53;14.80;99.90
53114;DHT22;39009;53.166;6.232;2022-10-16T15:35:19;14.70;99.90
53114;DHT22;39009;53.166;6.232;2022-10-16T15:37:45;14.70;99.90
53114;DHT22;39009;53.166;6.232;2022-10-16T15:40:11;14.60;99.90
53114;DHT22;39009;53.166;6.232;2022-10-16T15:42:37;14.60;99.90
53114;DHT22;39009;53.166;6.232;2022-10-16T15:45:02;14.50;99.90
53114;DHT22;39009;53.166;6.232;2022-10-16T15:47:29;14.50;99.90
53114;DHT22;39009;53.166;6.232;2022-10-16T15:49:54;14.40;99.90
53114;DHT22;39009;53.166;6.232;2022-10-16T15:52:20;14.30;99.90
53114;DHT22;39009;53.166;6.232;2022-10-16T15:54:46;14.30;99.90
53114;DHT22;39009;53.166;6.232;2022-10-16T15:57:11;14.20;99.90
53114;DHT22;39009;53.166;6.232;2022-10-16T15:59:37;14.20;99.90
53114;DHT22;39009;53.166;6.232;2022-10-16T16:02:02;14.10;99.90
53114;DHT22;39009;53.166;6.232;2022-10-16T16:04:30;14.00;99.90
53114;DHT22;39009;53.166;6.232;2022-10-16T16:06:56;14.00;99.90
53114;DHT22;39009;53.166;6.232;2022-10-16T16:09:22;13.90;99.90
53114;DHT22;39009;53.166;6.232;2022-10-16T16:11:48;13.80;99.90
53114;DHT22;39009;53.166;6.232;2022-10-16T16:14:14;13.70;99.90
53114;DHT22;39009;53.166;6.232;2022-10-16T16:16:40;13.60;99.90
53114;DHT22;39009;53.166;6.232;2022-10-16T16:19:06;13.40;99.90
53114;DHT22;39009;53.166;6.232;2022-10-16T16:21:33;13.40;99.90
53114;DHT22;39009;53.166;6.232;2022-10-16T16:23:58;13.30;99.90
53114;DHT22;39009;53.166;6.232;2022-10-16T16:26:25;13.20;99.90
53114;DHT22;39009;53.166;6.232;2022-10-16T16:28:52;13.20;99.90
53114;DHT22;39009;53.166;6.232;2022-10-16T16:31:18;13.10;99.90
53114;DHT22;39009;53.166;6.232;2022-10-16T16:33:44;13.00;99.90
53114;DHT22;39009;53.166;6.232;2022-10-16T16:36:10;12.90;99.90
53114;DHT22;39009;53.166;6.232;2022-10-16T16:38:35;12.90;99.90
53114;DHT22;39009;53.166;6.232;2022-10-16T16:41:11;12.80;99.90